createdAt,value
2022-08-07T00:01:42.975Z,95832.19
2022-08-07T00:03:53.370Z,95835.13
2022-08-07T00:06:33.027Z,95834.84
2022-08-07T00:09:16.885Z,95825.53
2022-08-07T00:11:55.521Z,95821.00
2022-08-07T00:14:25.583Z,95830.06
2022-08-07T00:16:57.813Z,95818.84
2022-08-07T00:19:34.142Z,95825.00
2022-08-07T00:22:13.753Z,95821.03
2022-08-07T00:24:52.088Z,95811.41
2022-08-07T00:27:19.349Z,95816.75
2022-08-07T00:29:50.086Z,95810.63
2022-08-07T00:32:17.345Z,95811.97
2022-08-07T00:34:51.845Z,95803.88
2022-08-07T00:37:21.366Z,95810.84
2022-08-07T00:39:54.622Z,95804.69
2022-08-07T00:42:25.490Z,95810.09
2022-08-07T00:44:56.434Z,95814.16
2022-08-07T00:48:09.411Z,95809.59
2022-08-07T00:50:19.570Z,95799.38
2022-08-07T00:52:50.104Z,95809.53
2022-08-07T00:55:25.502Z,95811.91
2022-08-07T00:58:07.667Z,95801.41
2022-08-07T01:00:36.045Z,95802.25
2022-08-07T01:03:04.144Z,95801.16
2022-08-07T01:05:36.542Z,95795.25
2022-08-07T01:08:09.137Z,95791.25
2022-08-07T01:10:36.491Z,95791.25
2022-08-07T01:13:04.284Z,95789.91
2022-08-07T01:15:35.936Z,95781.16
2022-08-07T01:18:24.693Z,95777.09
2022-08-07T01:21:01.964Z,95792.72
2022-08-07T01:23:39.473Z,95784.97
2022-08-07T01:26:12.060Z,95783.06
2022-08-07T01:28:46.347Z,95788.41
2022-08-07T01:31:17.999Z,95789.75
2022-08-07T01:33:55.926Z,95791.16
2022-08-07T01:36:33.432Z,95789.00
2022-08-07T01:39:01.395Z,95787.97
2022-08-07T01:41:32.603Z,95800.69
2022-08-07T01:43:59.892Z,95800.59
2022-08-07T01:46:29.086Z,95800.47
2022-08-07T01:48:59.825Z,95801.03
2022-08-07T01:52:03.970Z,95797.03
2022-08-07T01:54:33.093Z,95794.41
2022-08-07T01:57:08.477Z,95795.78
2022-08-07T01:59:44.129Z,95790.97
2022-08-07T02:03:11.680Z,95796.06
2022-08-07T02:05:16.154Z,95797.94
2022-08-07T02:08:08.875Z,95798.75
2022-08-07T02:10:42.275Z,95809.69
2022-08-07T02:13:13.205Z,95803.84
2022-08-07T02:15:44.105Z,95802.47
2022-08-07T02:18:14.046Z,95794.16
2022-08-07T02:20:48.663Z,95804.03
2022-08-07T02:23:23.991Z,95796.88
2022-08-07T02:26:30.571Z,95796.34
2022-08-07T02:28:44.040Z,95797.41
2022-08-07T02:31:28.589Z,95791.91
2022-08-07T02:34:11.274Z,95783.06
2022-08-07T02:36:46.131Z,95779.34
2022-08-07T02:39:42.922Z,95776.34
2022-08-07T02:42:10.201Z,95785.72
2022-08-07T02:44:48.720Z,95777.53
2022-08-07T02:47:44.837Z,95779.88
2022-08-07T02:50:08.086Z,95776.88
2022-08-07T02:52:41.671Z,95779.84
2022-08-07T02:55:28.288Z,95783.69
2022-08-07T02:58:12.305Z,95779.75
2022-08-07T03:00:46.896Z,95770.91
2022-08-07T03:03:21.061Z,95765.63
2022-08-07T03:05:53.670Z,95772.03
2022-08-07T03:08:26.912Z,95763.47
2022-08-07T03:10:59.566Z,95757.31
2022-08-07T03:13:27.020Z,95755.44
2022-08-07T03:15:58.296Z,95755.50
2022-08-07T03:18:35.075Z,95748.09
2022-08-07T03:21:08.210Z,95746.81
2022-08-07T03:24:20.820Z,95748.69
2022-08-07T03:26:31.409Z,95756.31
2022-08-07T03:29:02.066Z,95746.66
2022-08-07T03:31:43.064Z,95744.75
2022-08-07T03:34:18.835Z,95745.31
2022-08-07T03:36:52.872Z,95743.69
2022-08-07T03:39:59.673Z,95743.75
2022-08-07T03:42:15.945Z,95737.03
2022-08-07T03:44:47.179Z,95741.78
2022-08-07T03:47:21.284Z,95744.75
2022-08-07T03:49:52.440Z,95742.06
2022-08-07T03:52:26.614Z,95742.13
2022-08-07T03:54:57.351Z,95734.63
2022-08-07T03:58:35.388Z,95745.78
2022-08-07T04:00:29.243Z,95738.34
2022-08-07T04:02:59.010Z,95737.53
2022-08-07T04:05:39.240Z,95735.47
2022-08-07T04:08:11.183Z,95733.59
2022-08-07T04:10:39.584Z,95743.25
2022-08-07T04:13:15.553Z,95735.75
2022-08-07T04:15:45.578Z,95734.41
2022-08-07T04:18:57.688Z,95734.91
2022-08-07T04:21:01.794Z,95739.38
2022-08-07T04:23:43.585Z,95739.09
2022-08-07T04:26:21.919Z,95737.31
2022-08-07T04:28:51.848Z,95742.94
2022-08-07T04:31:39.262Z,95734.91
2022-08-07T04:34:16.924Z,95746.91
2022-08-07T04:36:45.389Z,95738.97
2022-08-07T04:39:17.845Z,95747.53
2022-08-07T04:41:50.419Z,95746.69
2022-08-07T04:44:20.007Z,95751.25
2022-08-07T04:47:07.980Z,95752.31
2022-08-07T04:49:57.452Z,95752.06
2022-08-07T04:52:36.424Z,95765.16
2022-08-07T04:58:12.320Z,95758.22
2022-08-07T04:58:34.868Z,95762.50
2022-08-07T05:01:13.872Z,95775.59
2022-08-07T05:04:06.994Z,95776.72
2022-08-07T05:06:51.153Z,95780.97
2022-08-07T05:09:45.346Z,95776.72
2022-08-07T05:12:27.044Z,95782.63
2022-08-07T05:15:05.926Z,95786.09
2022-08-07T05:17:52.204Z,95775.94
2022-08-07T05:20:27.252Z,95781.53
2022-08-07T05:23:01.959Z,95780.72
2022-08-07T05:25:54.377Z,95778.09
2022-08-07T05:28:23.265Z,95778.06
2022-08-07T05:30:57.021Z,95779.09
2022-08-07T05:33:29.364Z,95782.06
2022-08-07T05:35:58.504Z,95781.25
2022-08-07T05:39:01.170Z,95773.28
2022-08-07T05:41:18.280Z,95772.47
2022-08-07T05:44:12.089Z,95779.69
2022-08-07T05:46:40.446Z,95780.22
2022-08-07T05:49:12.983Z,95779.66
2022-08-07T05:51:43.202Z,95792.72
2022-08-07T05:54:31.055Z,95784.97
2022-08-07T05:57:04.123Z,95788.19
2022-08-07T05:59:55.588Z,95796.47
2022-08-07T06:02:29.563Z,95798.09
2022-08-07T06:05:05.087Z,95798.31
2022-08-07T06:08:14.135Z,95805.78
2022-08-07T06:10:23.583Z,95797.78
2022-08-07T06:12:51.421Z,95796.44
2022-08-07T06:15:20.393Z,95798.06
2022-08-07T06:17:53.706Z,95799.94
2022-08-07T06:20:31.935Z,95803.97
2022-08-07T06:23:46.435Z,95804.47
2022-08-07T06:26:01.464Z,95804.75
2022-08-07T06:28:29.365Z,95810.94
2022-08-07T06:30:58.171Z,95816.56
2022-08-07T06:33:26.542Z,95807.75
2022-08-07T06:36:13.415Z,95813.88
2022-08-07T06:38:51.207Z,95807.44
2022-08-07T06:42:01.063Z,95815.22
2022-08-07T06:44:21.681Z,95810.66
2022-08-07T06:46:53.339Z,95812.53
2022-08-07T06:49:27.921Z,95809.34
2022-08-07T06:51:59.823Z,95808.53
2022-08-07T06:55:33.047Z,95806.63
2022-08-07T06:57:39.627Z,95810.66
2022-08-07T07:00:18.152Z,95798.91
2022-08-07T07:02:54.165Z,95805.78
2022-08-07T07:06:03.075Z,95803.38
2022-08-07T07:08:18.609Z,95800.75
2022-08-07T07:10:54.802Z,95796.78
2022-08-07T07:13:55.564Z,95802.63
2022-08-07T07:16:27.490Z,95803.16
2022-08-07T07:19:54.562Z,95800.94
2022-08-07T07:22:04.722Z,95801.00
2022-08-07T07:24:56.927Z,95805.03
2022-08-07T07:27:35.468Z,95813.59
2022-08-07T07:30:32.547Z,95808.78
2022-08-07T07:33:11.858Z,95807.41
2022-08-07T07:35:50.628Z,95802.84
2022-08-07T07:38:32.981Z,95801.00
2022-08-07T07:41:08.661Z,95802.56
2022-08-07T07:44:13.969Z,95795.78
2022-08-07T07:46:36.752Z,95789.50
2022-08-07T07:50:35.717Z,95794.00
2022-08-07T07:52:15.881Z,95792.91
2022-08-07T07:54:51.302Z,95793.13
2022-08-07T07:57:52.361Z,95793.09
2022-08-07T08:00:20.687Z,95791.75
2022-08-07T08:03:04.828Z,95786.66
2022-08-07T08:05:54.527Z,95798.97
2022-08-07T08:08:34.328Z,95802.50
2022-08-07T08:11:08.106Z,95795.50
2022-08-07T08:13:53.061Z,95805.06
2022-08-07T08:18:36.893Z,95799.97
2022-08-07T08:20:17.175Z,95798.44
2022-08-07T08:22:10.553Z,95800.88
2022-08-07T08:24:45.683Z,95799.19
2022-08-07T08:27:17.623Z,95804.06
2022-08-07T08:29:54.713Z,95804.59
2022-08-07T08:32:38.127Z,95805.94
2022-08-07T08:35:10.052Z,95805.94
2022-08-07T08:38:00.717Z,95806.22
2022-08-07T08:40:32.745Z,95806.22
2022-08-07T08:43:10.865Z,95803.47
2022-08-07T08:45:59.239Z,95807.56
2022-08-07T08:48:39.822Z,95802.44
2022-08-07T08:51:22.449Z,95807.25
2022-08-07T08:54:15.921Z,95803.53
2022-08-07T08:56:51.423Z,95798.69
2022-08-07T08:59:29.284Z,95804.53
2022-08-07T09:02:09.975Z,95801.03
2022-08-07T09:04:47.082Z,95807.94
2022-08-07T09:07:25.382Z,95796.19
2022-08-07T09:10:04.207Z,95806.56
2022-08-07T09:12:56.922Z,95802.84
2022-08-07T09:16:20.678Z,95802.94
2022-08-07T09:18:58.421Z,95809.56
2022-08-07T09:22:10.155Z,95804.91
2022-08-07T09:24:59.627Z,95809.19
2022-08-07T09:27:54.607Z,95805.97
2022-08-07T09:30:25.459Z,95802.13
2022-08-07T09:33:16.516Z,95809.69
2022-08-07T09:36:06.345Z,95801.56
2022-08-07T09:38:50.204Z,95798.03
2022-08-07T09:41:36.336Z,95802.78
2022-08-07T09:44:40.469Z,95797.19
2022-08-07T09:47:59.171Z,95803.34
2022-08-07T09:50:30.844Z,95797.78
2022-08-07T09:53:03.444Z,95801.59
2022-08-07T09:56:03.400Z,95802.88
2022-08-07T09:59:01.606Z,95805.31
2022-08-07T10:01:58.203Z,95801.28
2022-08-07T10:04:46.222Z,95795.09
2022-08-07T10:07:53.103Z,95799.53
2022-08-07T10:14:00.733Z,95796.88
2022-08-07T10:17:01.186Z,95792.28
2022-08-07T10:19:56.741Z,95797.72
2022-08-07T10:22:57.844Z,95793.78
2022-08-07T10:25:42.940Z,95792.16
2022-08-07T10:28:49.574Z,95786.03
2022-08-07T10:31:49.596Z,95782.19
2022-08-07T10:34:33.861Z,95774.22
2022-08-07T10:37:48.113Z,95785.09
2022-08-07T10:40:20.924Z,95775.59
2022-08-07T10:43:01.083Z,95780.38
2022-08-07T10:45:44.377Z,95780.38
2022-08-07T10:48:35.042Z,95772.47
2022-08-07T10:51:09.360Z,95771.19
2022-08-07T10:53:51.721Z,95774.94
2022-08-07T10:56:46.345Z,95770.84
2022-08-07T10:59:37.314Z,95765.50
2022-08-07T11:02:32.960Z,95755.34
2022-08-07T11:05:14.643Z,95759.63
2022-08-07T11:07:59.365Z,95751.19
2022-08-07T11:10:39.862Z,95765.34
2022-08-07T11:14:42.647Z,95754.41
2022-08-07T11:16:09.123Z,95758.16
2022-08-07T11:18:50.750Z,95755.59
2022-08-07T11:21:32.106Z,95761.44
2022-08-07T11:24:11.566Z,95754.00
2022-08-07T11:26:49.983Z,95754.44
2022-08-07T11:29:40.944Z,95758.28
2022-08-07T11:32:26.163Z,95750.19
2022-08-07T11:34:58.745Z,95752.38
2022-08-07T11:37:58.348Z,95761.09
2022-08-07T11:40:49.768Z,95759.28
2022-08-07T11:43:29.789Z,95760.25
2022-08-07T11:46:36.725Z,95758.72
2022-08-07T11:49:51.445Z,95761.00
2022-08-07T11:52:35.628Z,95753.75
2022-08-07T11:55:18.885Z,95750.75
2022-08-07T11:58:16.960Z,95753.94
2022-08-07T12:01:04.234Z,95751.88
2022-08-07T12:03:52.902Z,95748.47
2022-08-07T12:06:51.478Z,95738.59
2022-08-07T12:09:34.241Z,95750.25
2022-08-07T12:12:09.363Z,95747.72
2022-08-07T12:15:01.381Z,95746.56
2022-08-07T12:17:38.037Z,95742.31
2022-08-07T12:20:30.284Z,95741.56
2022-08-07T12:24:05.052Z,95734.81
2022-08-07T12:26:40.520Z,95741.06
2022-08-07T12:29:37.295Z,95734.91
2022-08-07T12:32:15.920Z,95734.16
2022-08-07T12:34:49.465Z,95722.84
2022-08-07T12:37:23.376Z,95729.88
2022-08-07T12:40:00.057Z,95722.94
2022-08-07T12:42:32.184Z,95723.75
2022-08-07T12:45:08.028Z,95728.22
2022-08-07T12:47:45.741Z,95729.56
2022-08-07T12:50:33.912Z,95727.38
2022-08-07T12:53:18.132Z,95730.94
2022-08-07T12:56:02.482Z,95723.03
2022-08-07T12:58:39.233Z,95728.63
2022-08-07T13:01:19.333Z,95717.63
2022-08-07T13:04:09.825Z,95727.63
2022-08-07T13:08:12.581Z,95715.16
2022-08-07T13:10:40.868Z,95718.66
2022-08-07T13:13:48.182Z,95713.03
2022-08-07T13:16:27.320Z,95707.59
2022-08-07T13:19:21.874Z,95706.84
2022-08-07T13:22:12.806Z,95705.09
2022-08-07T13:25:00.564Z,95700.97
2022-08-07T13:28:10.806Z,95696.88
2022-08-07T13:30:41.023Z,95699.72
2022-08-07T13:34:31.527Z,95684.16
2022-08-07T13:36:17.534Z,95690.78
2022-08-07T13:38:55.306Z,95684.53
2022-08-07T13:41:33.892Z,95681.28
2022-08-07T13:44:10.225Z,95684.63
2022-08-07T13:46:49.311Z,95688.53
2022-08-07T13:50:34.180Z,95682.59
2022-08-07T13:52:30.649Z,95687.00
2022-08-07T13:54:58.783Z,95677.69
2022-08-07T13:57:37.555Z,95678.09
2022-08-07T14:00:08.440Z,95684.63
2022-08-07T14:02:58.752Z,95673.13
2022-08-07T14:05:37.592Z,95672.00
2022-08-07T14:08:08.242Z,95664.13
2022-08-07T14:10:41.678Z,95673.44
2022-08-07T14:13:16.865Z,95676.00
2022-08-07T14:15:57.006Z,95670.50
2022-08-07T14:18:32.584Z,95675.22
2022-08-07T14:21:20.936Z,95670.81
2022-08-07T14:24:02.240Z,95669.72
2022-08-07T14:26:38.462Z,95672.13
2022-08-07T14:30:02.804Z,95676.75
2022-08-07T14:32:02.135Z,95667.78
2022-08-07T14:34:33.966Z,95658.97
2022-08-07T14:37:04.377Z,95663.06
2022-08-07T14:40:17.121Z,95660.88
2022-08-07T14:42:31.337Z,95663.66
2022-08-07T14:45:21.294Z,95661.13
2022-08-07T14:50:48.169Z,95670.81
2022-08-07T14:54:03.758Z,95667.50
2022-08-07T14:56:13.881Z,95676.28
2022-08-07T14:58:52.507Z,95670.25
2022-08-07T15:01:28.510Z,95655.94
2022-08-07T15:04:17.343Z,95658.94
2022-08-07T15:06:49.721Z,95660.53
2022-08-07T15:15:07.453Z,95666.69
2022-08-07T15:17:55.589Z,95649.88
2022-08-07T15:20:34.034Z,95644.28
2022-08-07T15:25:02.261Z,95670.25
2022-08-07T15:26:20.624Z,95664.81
2022-08-07T15:32:00.977Z,95654.22
2022-08-07T15:34:36.285Z,95654.91
2022-08-07T15:37:06.689Z,95657.00
2022-08-07T15:39:57.927Z,95647.41
2022-08-07T15:42:53.022Z,95652.16
2022-08-07T15:45:57.561Z,95660.47
2022-08-07T15:48:25.820Z,95655.00
2022-08-07T15:51:01.339Z,95653.19
2022-08-07T15:53:51.640Z,95655.38
2022-08-07T15:56:33.288Z,95658.00
2022-08-07T15:59:04.716Z,95657.75
2022-08-07T16:01:38.565Z,95650.16
2022-08-07T16:04:14.864Z,95656.44
2022-08-07T16:06:51.767Z,95665.28
2022-08-07T16:09:42.329Z,95664.97
2022-08-07T16:12:29.792Z,95670.28
2022-08-07T16:15:58.202Z,95652.38
2022-08-07T16:18:50.127Z,95643.78
2022-08-07T16:22:01.418Z,95637.69
2022-08-07T16:24:02.863Z,95643.28
2022-08-07T16:26:59.537Z,95636.16
2022-08-07T16:30:11.460Z,95644.28
2022-08-07T16:32:59.162Z,95638.47
2022-08-07T16:35:51.751Z,95625.47
2022-08-07T16:39:01.315Z,95633.09
2022-08-07T16:42:02.341Z,95633.66
2022-08-07T16:45:14.968Z,95635.94
2022-08-07T16:48:10.001Z,95637.25
2022-08-07T16:51:20.523Z,95636.31
2022-08-07T16:54:10.269Z,95633.91
2022-08-07T16:56:55.885Z,95622.13
2022-08-07T16:59:45.771Z,95638.81
2022-08-07T17:03:05.961Z,95649.72
2022-08-07T17:06:26.624Z,95644.81
2022-08-07T17:09:09.461Z,95640.09
2022-08-07T17:12:02.088Z,95635.53
2022-08-07T17:14:34.010Z,95633.09
2022-08-07T17:17:08.531Z,95636.81
2022-08-07T17:20:02.106Z,95630.63
2022-08-07T17:22:42.539Z,95628.50
2022-08-07T17:25:18.426Z,95637.16
2022-08-07T17:28:00.426Z,95627.75
2022-08-07T17:30:35.600Z,95617.72
2022-08-07T17:34:08.819Z,95636.25
2022-08-07T17:36:13.638Z,95649.09
2022-08-07T17:39:00.532Z,95648.16
2022-08-07T17:42:02.969Z,95649.38
2022-08-07T17:44:45.498Z,95654.44
2022-08-07T17:47:38.267Z,95647.13
2022-08-07T17:50:16.689Z,95646.03
2022-08-07T17:52:58.989Z,95649.75
2022-08-07T17:56:00.679Z,95654.06
2022-08-07T17:58:31.706Z,95655.03
2022-08-07T18:01:20.856Z,95656.19
2022-08-07T18:04:07.190Z,95651.63
2022-08-07T18:06:43.042Z,95658.66
2022-08-07T18:09:19.183Z,95654.03
2022-08-07T18:12:19.799Z,95662.91
2022-08-07T18:15:02.030Z,95660.97
2022-08-07T18:18:36.555Z,95670.22
2022-08-07T18:21:11.506Z,95659.75
2022-08-07T18:23:56.097Z,95653.66
2022-08-07T18:26:52.281Z,95662.22
2022-08-07T18:30:07.238Z,95654.25
2022-08-07T18:32:28.612Z,95659.22
2022-08-07T18:35:11.901Z,95666.25
2022-08-07T18:38:58.179Z,95675.28
2022-08-07T18:41:09.237Z,95683.78
2022-08-07T18:43:57.831Z,95681.75
2022-08-07T18:46:43.134Z,95672.81
2022-08-07T18:50:32.509Z,95674.25
2022-08-07T18:52:55.699Z,95677.88
2022-08-07T18:55:40.677Z,95672.06
2022-08-07T18:58:33.341Z,95688.59
2022-08-07T19:02:17.300Z,95683.78
2022-08-07T19:04:09.849Z,95696.16
2022-08-07T19:06:55.482Z,95690.69
2022-08-07T19:09:55.295Z,95698.63
2022-08-07T19:12:26.476Z,95689.47
2022-08-07T19:16:03.054Z,95706.44
2022-08-07T19:18:17.562Z,95704.09
2022-08-07T19:21:13.959Z,95706.59
2022-08-07T19:24:04.642Z,95707.81
2022-08-07T19:28:28.434Z,95710.41
2022-08-07T19:31:04.152Z,95714.63
2022-08-07T19:32:30.652Z,95714.19
2022-08-07T19:35:16.859Z,95717.91
2022-08-07T19:37:57.132Z,95718.56
2022-08-07T19:40:31.198Z,95723.28
2022-08-07T19:43:08.515Z,95720.19
2022-08-07T19:46:04.699Z,95722.25
2022-08-07T19:48:42.423Z,95719.34
2022-08-07T19:51:20.033Z,95712.00
2022-08-07T19:54:44.651Z,95716.56
2022-08-07T19:57:51.656Z,95714.91
2022-08-07T19:59:40.526Z,95718.94
2022-08-07T20:02:24.160Z,95721.38
2022-08-07T20:04:56.293Z,95713.09
2022-08-07T20:07:45.820Z,95727.53
2022-08-07T20:10:37.725Z,95730.47
2022-08-07T20:13:15.817Z,95724.69
2022-08-07T20:15:54.204Z,95711.28
2022-08-07T20:18:33.585Z,95701.69
2022-08-07T20:21:21.103Z,95700.13
2022-08-07T20:23:57.809Z,95695.81
2022-08-07T20:26:38.521Z,95691.50
2022-08-07T20:29:10.347Z,95697.38
2022-08-07T20:31:44.042Z,95691.47
2022-08-07T20:34:15.080Z,95700.88
2022-08-07T20:36:51.809Z,95694.72
2022-08-07T20:40:01.326Z,95688.91
2022-08-07T20:42:12.520Z,95695.03
2022-08-07T20:44:45.447Z,95698.84
2022-08-07T20:47:25.107Z,95692.09
2022-08-07T20:49:59.717Z,95696.75
2022-08-07T20:52:51.720Z,95704.44
2022-08-07T20:55:24.436Z,95702.56
2022-08-07T20:58:03.349Z,95703.13
2022-08-07T21:00:40.468Z,95697.56
2022-08-07T21:03:16.036Z,95694.06
2022-08-07T21:05:54.937Z,95704.25
2022-08-07T21:08:32.394Z,95692.22
2022-08-07T21:11:14.477Z,95703.16
2022-08-07T21:14:16.212Z,95693.56
2022-08-07T21:16:56.192Z,95697.84
2022-08-07T21:19:51.175Z,95695.72
2022-08-07T21:22:28.483Z,95694.75
2022-08-07T21:25:12.007Z,95693.44
2022-08-07T21:28:01.708Z,95697.91
2022-08-07T21:30:38.440Z,95701.97
2022-08-07T21:33:20.306Z,95697.97
2022-08-07T21:36:05.241Z,95696.94
2022-08-07T21:38:49.951Z,95697.97
2022-08-07T21:41:26.942Z,95696.69
2022-08-07T21:44:14.610Z,95703.97
2022-08-07T21:47:01.443Z,95696.25
2022-08-07T21:49:40.665Z,95696.75
2022-08-07T21:52:36.478Z,95701.28
2022-08-07T21:55:15.297Z,95712.50
2022-08-07T21:58:06.561Z,95710.06
2022-08-07T22:00:39.163Z,95705.63
2022-08-07T22:03:16.458Z,95713.84
2022-08-07T22:05:52.801Z,95711.16
2022-08-07T22:08:26.003Z,95715.69
2022-08-07T22:10:59.754Z,95709.06
2022-08-07T22:13:52.593Z,95715.22
2022-08-07T22:16:40.947Z,95712.25
2022-08-07T22:19:20.124Z,95711.75
2022-08-07T22:22:17.938Z,95705.06
2022-08-07T22:25:00.702Z,95703.97
2022-08-07T22:28:02.966Z,95706.22
2022-08-07T22:30:39.801Z,95707.25
2022-08-07T22:33:15.064Z,95708.63
2022-08-07T22:35:51.365Z,95707.34
2022-08-07T22:38:35.925Z,95718.06
2022-08-07T22:41:14.182Z,95705.22
2022-08-07T22:43:50.414Z,95715.09
2022-08-07T22:47:06.304Z,95722.81
2022-08-07T22:50:12.322Z,95719.22
2022-08-07T22:53:15.350Z,95716.81
2022-08-07T22:55:59.743Z,95720.75
2022-08-07T22:59:01.728Z,95713.25
2022-08-07T23:01:59.248Z,95725.31
2022-08-07T23:06:07.167Z,95720.06
2022-08-07T23:08:22.375Z,95720.22
2022-08-07T23:11:12.991Z,95717.59
2022-08-07T23:14:10.837Z,95729.34
2022-08-07T23:17:03.783Z,95732.44
2022-08-07T23:19:52.046Z,95734.31
2022-08-07T23:22:35.003Z,95723.06
2022-08-07T23:25:28.667Z,95721.03
2022-08-07T23:28:22.500Z,95711.81
2022-08-07T23:31:18.570Z,95736.34
2022-08-07T23:34:36.539Z,95733.34
2022-08-07T23:37:29.692Z,95730.25
2022-08-07T23:40:12.814Z,95729.09
2022-08-07T23:42:57.281Z,95735.44
2022-08-07T23:46:02.717Z,95738.94
2022-08-07T23:48:38.985Z,95741.13
2022-08-07T23:52:59.624Z,95741.31
2022-08-07T23:54:36.254Z,95738.34
2022-08-07T23:57:23.741Z,95739.91
